Etusivu
METAR-TAF:

METAR-TAF

Lentoasemat :

Tabarka, Tunisia

Leveyspiiri: 36-57N, Pituuspiiri: 008-45E, korkeus merenpinnasta: 20 m

Tämänhetkinen sää

Tämä raportti tehtiin 46 minuuttia sitten, kello 00.00 UTC
Tuuli 3 kn kaakosta
Lämpötila 19°C
Kosteus 68%
Ilmanpaine 1014 hPa
Näkyvyys 10 km tai enemmän
Muutamia pilviä 2000 ft:n korkeudessa

METAR: DTKA 250000Z 14003KT 9999 FEW020 19/13 Q1014 NOSIG

Aika: 01:46 (00:46 UTC)

Sääennuste

Tämä raportti tehtiin 46 minuuttia sitten, kello 00.00 UTC
Ennuste voimassa 25. päivästä klo 01 UTC - 25. päivään klo 10 UTC
Tuuli 2 kn eri suunnista
Näkyvyys 10 km tai enemmän
Muutamia pilviä 2000 ft:n korkeudessa
Tulossa
25. päivästä klo 03 UTC - 25. päivään klo 05 UTC
Tuuli 4 kn etelästä
Tulossa
25. päivästä klo 07 UTC - 25. päivään klo 09 UTC
Tuuli 10 kn lännestä

TAF: DTKA 250000Z 2501/2510 VRB02KT 9999 FEW020 BECMG 2503/2505 17004KT BECMG 2507/2509 26010KT

Säähavainnot ja -ennusteet yli 4000 lentoasemalta (METAR- ja TAF-raportit).

Käytössä olevat sääasemat on merkitty karttaan keltaisilla ja punaisilla pisteillä.

Aseta hiiri pisteen päälle nähdäksesi sääaseman nimen.

Klikkaa sitten nähdäksesi säähavainnot ja -ennusteet.

Kartan vaihtaminen: klikkaa mustalla rastilla varustettuja vihreitä pisteitä, niin voit zoomata sisään; viivalla varustettua vihreää pistettä, niin voit zoomata ulos tai vihreitä nuolia, niin pääset viereisille kartoille.


METAR-TAF: